Flight Track Log - Related Links

Times and Time Zones

All times are in EDT time to prevent confusion due to time zone crossing. See the ASA245 flight status page for this flight to view local times or setup timezone preferences in your user account.

Time Position Orientation Groundspeed Altitude Reporting Facility
EDT Latitude Longitude Course Direction KTS MPH feet Rate Location/Type
Wed 06:48:22 PM 32.2847 -115.0736 307° West 456 525 38,000  Level Los Angeles Center
Wed 06:49:24 PM 32.3772 -115.2167 307° West 458 527 38,000  Level Los Angeles Center
Wed 06:50:26 PM 32.4442 -115.3281 305° West 456 525 38,000  Level Los Angeles Center
Wed 06:51:29 PM 32.5203 -115.4472 307° West 455 524 38,000  Level Los Angeles Center
Wed 06:52:31 PM 32.6133 -115.5928 307° West 460 529 38,000  Level Los Angeles Center
Wed 06:53:33 PM 32.6861 -115.7144 305° West 457 526 38,000  Level Los Angeles Center
Wed 06:54:34 PM 32.7392 -115.8181 301° West 460 529 38,000 -581 Level Los Angeles Center
Wed 06:55:37 PM 32.8200 -115.9703 302° West 457 526 36,800 -2,016 Descending Los Angeles Center
Wed 06:56:39 PM 32.8867 -116.0964 302° West 461 531 33,800 -3,048 Descending Los Angeles Center
Wed 06:57:41 PM 32.9633 -116.2433 302° West 472 543 30,500 -2,565 Descending Los Angeles Center
Wed 06:58:43 PM 33.0178 -116.3472 302° West 473 544 28,500 -2,468 Descending Los Angeles Center
Wed 06:59:45 PM 33.0992 -116.5033 302° West 454 522 25,400 -2,208 Descending Los Angeles Center
Wed 07:00:48 PM 33.1478 -116.6325 294° West 438 504 23,900 -1,200 Descending Los Angeles Center
Wed 07:01:50 PM 33.1678 -116.8011 278° West 428 493 22,900 -1,984 Descending Los Angeles Center
Wed 07:02:52 PM 33.1856 -116.9475 278° West 440 506 19,800 -3,048 Descending Los Angeles Center
Wed 07:03:54 PM 33.2017 -117.0908 278° West 441 507 16,600 -3,158 Descending Los Angeles Center
Wed 07:04:27 PM 33.2167 -117.1833 281° West 426 490 14,800 -2,897 Descending Southern California TRACON
Wed 07:05:21 PM 33.2333 -117.3000 280° West 432 497 12,400 -1,461 Descending Southern California TRACON
Wed 07:06:22 PM 33.2333 -117.4333 270° West 410 472 12,000 -198 Descending Southern California TRACON
Wed 07:07:22 PM 33.2500 -117.5667 279° West 388 447 12,000 -268 Level Southern California TRACON
Wed 07:08:14 PM 33.2992 -117.6567 303° West 403 464 11,500 -992 Descending Los Angeles Center
Wed 07:09:23 PM 33.3833 -117.7500 317° Northwest 365 420 10,000 -1,024 Descending Southern California TRACON
Wed 07:10:17 PM 33.4500 -117.8167 320° Northwest 306 352 9,400 -969 Descending Southern California TRACON
Wed 07:11:33 PM 33.5208 -117.8869 320° Northwest 312 359 7,900 -609 Descending Los Angeles Center
Wed 07:12:35 PM 33.5811 -117.9506 319° Northwest 299 344 8,000  Climbing Los Angeles Center
Wed 07:13:23 PM 33.6500 -118.0000 329° Northwest 294 338 7,900 -588 Descending Southern California TRACON
Wed 07:14:17 PM 33.7167 -118.0333 337° Northwest 287 330 7,000 -450 Descending Southern California TRACON
Wed 07:15:23 PM 33.8000 -118.0667 342° North 284 327 7,000 -250 Level Southern California TRACON
Wed 07:16:17 PM 33.8500 -118.1000 331° Northwest 245 282 6,500 -842 Descending Southern California TRACON
Wed 07:17:17 PM 33.9167 -118.1500 328° Northwest 234 269 5,400 -1,095 Descending Southern California TRACON
Wed 07:18:23 PM 33.9500 -118.2000 309° West 217 250 4,200 -1,339 Descending Southern California TRACON
Wed 07:19:18 PM 33.9500 -118.2667 270° West 198 228 2,700 -1,535 Descending Southern California TRACON
Wed 07:19:49 PM 33.9469 -118.2900 261° West 199 229 2,000 -1,097 Descending Los Angeles Center
Wed 07:20:51 PM 33.9417 -118.3458 264° West 182 209 1,000 -823 Descending Los Angeles Center
Wed 07:21:53 PM 33.9369 -118.3975 264° West 161 185 300 -677 Descending Los Angeles Center
Wed 07:23:00 PM 33.9333 -118.4000 296° West  Level FlightAware Approximate
Wed 07:30:00 PM 33.9425 -118.4081 296° West  Level Estimated

Login

Don't have an account? Register now (free) for customized features, flight alerts, and more!